This is the latest recevied weather packets stored in our database for station/object KG4QXL-1. If no packets are shown the sender has not sent any weather packets the latest 10 day(s).
| Time | Temp. | Humidity | Pressure | Rain* | Wind** | Luminosity | Snow |
|---|---|---|---|---|---|---|---|
| 1777487758 | 15.56° C | 98% | 1015.6 hPa | 2.79 mm | - | 212 W/m² | - |
| 1777486578 | 15.56° C | 98% | 1016 hPa | 2.54 mm | - | 81 W/m² | - |
| 1777481158 | 15° C | 97% | 1018.1 hPa | 0.51 mm | - | 124 W/m² | - |
| 1777480558 | 15.56° C | 96% | 1018.4 hPa | 0.51 mm | - | 86 W/m² | - |
| 1777475758 | 17.78° C | 81% | 1018.6 hPa | 0 mm | - | 109 W/m² | - |
| 1777473999 | 17.78° C | 79% | 1018.9 hPa | 0 mm | - | 168 W/m² | - |
| 1777469758 | 16.11° C | 86% | 1019.8 hPa | 0 mm | - | 101 W/m² | - |
| 1777461978 | 11.67° C | 97% | 1020.4 hPa | 0 mm | - | 23 W/m² | - |
| 1777460158 | 11.11° C | 98% | 1020.6 hPa | 0 mm | - | 8 W/m² | - |
| 1777453558 | 10.56° C | 99% | 1021.1 hPa | 0 mm | - | 0 W/m² | - |
| 1777451758 | 10° C | 99% | 1021.1 hPa | 0 mm | - | 0 W/m² | - |
| 1777449958 | 10.56° C | 99% | 1021 hPa | 0 mm | - | 0 W/m² | - |
| 1777446958 | 10.56° C | 98% | 1021.1 hPa | 0 mm | - | 0 W/m² | - |
| 1777445759 | 10.56° C | 98% | 1021.5 hPa | 0 mm | - | 0 W/m² | - |
| 1777443358 | 10.56° C | 98% | 1021.9 hPa | 0 mm | - | 0 W/m² | - |
| 1777441558 | 10.56° C | 97% | 1022.4 hPa | 0 mm | - | 0 W/m² | - |
| 1777436759 | 10.56° C | 98% | 1023.8 hPa | 0 mm | - | 0 W/m² | - |
| 1777432558 | 11.11° C | 97% | 1023.7 hPa | 0 mm | - | 0 W/m² | - |
| 1777427758 | 11.67° C | 94% | 1023.8 hPa | 0 mm | - | 0 W/m² | - |
| 1777424158 | 12.78° C | 90% | 1022.1 hPa | 0 mm | - | 0 W/m² | - |
| 1777419358 | 15.56° C | 80% | 1021.9 hPa | 0 mm | - | 16 W/m² | - |
| 1777413958 | 18.33° C | 70% | 1022.1 hPa | 0 mm | - | 87 W/m² | - |
| 1777409759 | 19.44° C | 66% | 1021.8 hPa | 0 mm | - | 84 W/m² | - |
| 1777409158 | 19.44° C | 66% | 1021.9 hPa | 0 mm | - | 192 W/m² | - |
| 1777404358 | 19.44° C | 64% | 1022.1 hPa | 0 mm | - | 171 W/m² | - |
* Rain latest hour (hover to see other rain measurements)
** Current wind speed in m/s (hover to see current wind gust speed)